sensor_id;sensor_type;location;lat;lon;timestamp;P1;durP1;ratioP1;P2;durP2;ratioP2
79526;SDS011;68974;47.754;-3.364;2023-05-15T00:02:10;10.82;;;6.93;;
79526;SDS011;68974;47.754;-3.364;2023-05-15T00:04:36;11.13;;;7.30;;
79526;SDS011;68974;47.754;-3.364;2023-05-15T00:07:02;9.10;;;6.90;;
79526;SDS011;68974;47.754;-3.364;2023-05-15T00:09:27;9.15;;;7.57;;
79526;SDS011;68974;47.754;-3.364;2023-05-15T00:11:53;6.63;;;5.70;;
79526;SDS011;68974;47.754;-3.364;2023-05-15T00:14:18;10.00;;;7.10;;
79526;SDS011;68974;47.754;-3.364;2023-05-15T00:16:43;9.13;;;7.10;;
79526;SDS011;68974;47.754;-3.364;2023-05-15T00:19:09;9.00;;;6.90;;
79526;SDS011;68974;47.754;-3.364;2023-05-15T00:21:34;8.38;;;7.40;;
79526;SDS011;68974;47.754;-3.364;2023-05-15T00:24:01;9.00;;;6.95;;
79526;SDS011;68974;47.754;-3.364;2023-05-15T00:26:26;8.55;;;6.82;;
79526;SDS011;68974;47.754;-3.364;2023-05-15T00:28:52;10.68;;;6.95;;
79526;SDS011;68974;47.754;-3.364;2023-05-15T00:31:17;8.95;;;6.63;;
79526;SDS011;68974;47.754;-3.364;2023-05-15T00:33:43;7.53;;;6.10;;
79526;SDS011;68974;47.754;-3.364;2023-05-15T00:36:08;8.55;;;6.35;;
79526;SDS011;68974;47.754;-3.364;2023-05-15T00:38:34;10.55;;;6.90;;
79526;SDS011;68974;47.754;-3.364;2023-05-15T00:41:00;8.93;;;6.43;;
79526;SDS011;68974;47.754;-3.364;2023-05-15T00:43:25;7.72;;;6.47;;
79526;SDS011;68974;47.754;-3.364;2023-05-15T00:45:52;8.52;;;6.90;;
79526;SDS011;68974;47.754;-3.364;2023-05-15T00:48:18;10.25;;;7.50;;
79526;SDS011;68974;47.754;-3.364;2023-05-15T00:50:47;10.85;;;7.65;;
79526;SDS011;68974;47.754;-3.364;2023-05-15T00:53:14;11.70;;;8.07;;
79526;SDS011;68974;47.754;-3.364;2023-05-15T00:55:40;11.63;;;8.20;;
79526;SDS011;68974;47.754;-3.364;2023-05-15T00:58:06;10.68;;;7.70;;
79526;SDS011;68974;47.754;-3.364;2023-05-15T01:00:34;8.07;;;6.75;;
79526;SDS011;68974;47.754;-3.364;2023-05-15T01:03:00;11.30;;;7.55;;
79526;SDS011;68974;47.754;-3.364;2023-05-15T01:05:25;13.15;;;8.23;;
79526;SDS011;68974;47.754;-3.364;2023-05-15T01:07:53;9.32;;;7.15;;
79526;SDS011;68974;47.754;-3.364;2023-05-15T01:10:23;9.65;;;7.38;;
79526;SDS011;68974;47.754;-3.364;2023-05-15T01:12:49;8.77;;;6.75;;
79526;SDS011;68974;47.754;-3.364;2023-05-15T01:15:17;9.95;;;7.65;;
79526;SDS011;68974;47.754;-3.364;2023-05-15T01:17:42;11.73;;;8.43;;
79526;SDS011;68974;47.754;-3.364;2023-05-15T01:20:08;11.38;;;6.97;;
79526;SDS011;68974;47.754;-3.364;2023-05-15T01:28:11;10.45;;;7.57;;
79526;SDS011;68974;47.754;-3.364;2023-05-15T01:30:42;9.05;;;6.95;;
79526;SDS011;68974;47.754;-3.364;2023-05-15T01:38:52;8.15;;;6.60;;
79526;SDS011;68974;47.754;-3.364;2023-05-15T01:44:17;9.48;;;7.07;;
79526;SDS011;68974;47.754;-3.364;2023-05-15T01:46:48;9.88;;;7.47;;
79526;SDS011;68974;47.754;-3.364;2023-05-15T01:49:17;11.70;;;7.50;;
79526;SDS011;68974;47.754;-3.364;2023-05-15T01:51:44;9.43;;;7.20;;
79526;SDS011;68974;47.754;-3.364;2023-05-15T01:54:13;10.15;;;6.50;;
79526;SDS011;68974;47.754;-3.364;2023-05-15T01:56:40;10.98;;;6.30;;
79526;SDS011;68974;47.754;-3.364;2023-05-15T01:59:09;8.93;;;6.15;;
79526;SDS011;68974;47.754;-3.364;2023-05-15T02:01:37;10.13;;;6.78;;
79526;SDS011;68974;47.754;-3.364;2023-05-15T02:04:03;7.65;;;6.60;;
79526;SDS011;68974;47.754;-3.364;2023-05-15T02:06:30;10.07;;;6.95;;
79526;SDS011;68974;47.754;-3.364;2023-05-15T02:08:56;9.57;;;7.00;;
79526;SDS011;68974;47.754;-3.364;2023-05-15T02:11:23;9.32;;;6.50;;
79526;SDS011;68974;47.754;-3.364;2023-05-15T02:13:48;8.95;;;6.38;;
79526;SDS011;68974;47.754;-3.364;2023-05-15T02:16:15;9.20;;;6.45;;
79526;SDS011;68974;47.754;-3.364;2023-05-15T02:18:41;8.63;;;6.10;;
79526;SDS011;68974;47.754;-3.364;2023-05-15T02:21:06;7.82;;;5.90;;
79526;SDS011;68974;47.754;-3.364;2023-05-15T02:23:32;9.38;;;6.05;;
79526;SDS011;68974;47.754;-3.364;2023-05-15T02:28:25;9.37;;;5.77;;
79526;SDS011;68974;47.754;-3.364;2023-05-15T02:30:57;7.78;;;6.90;;
79526;SDS011;68974;47.754;-3.364;2023-05-15T02:36:21;6.55;;;5.47;;
79526;SDS011;68974;47.754;-3.364;2023-05-15T02:38:52;8.82;;;4.90;;
79526;SDS011;68974;47.754;-3.364;2023-05-15T02:41:18;7.80;;;4.65;;
79526;SDS011;68974;47.754;-3.364;2023-05-15T02:43:46;5.80;;;4.93;;
79526;SDS011;68974;47.754;-3.364;2023-05-15T02:46:14;8.18;;;4.75;;
79526;SDS011;68974;47.754;-3.364;2023-05-15T02:48:40;6.35;;;4.93;;
79526;SDS011;68974;47.754;-3.364;2023-05-15T02:51:07;5.38;;;4.65;;
79526;SDS011;68974;47.754;-3.364;2023-05-15T02:53:34;6.75;;;4.90;;
79526;SDS011;68974;47.754;-3.364;2023-05-15T02:56:03;6.75;;;4.40;;
79526;SDS011;68974;47.754;-3.364;2023-05-15T02:58:29;7.18;;;4.22;;
79526;SDS011;68974;47.754;-3.364;2023-05-15T03:00:54;6.63;;;4.68;;
79526;SDS011;68974;47.754;-3.364;2023-05-15T03:03:20;8.15;;;4.47;;
79526;SDS011;68974;47.754;-3.364;2023-05-15T03:05:46;6.25;;;4.70;;
79526;SDS011;68974;47.754;-3.364;2023-05-15T03:08:11;6.50;;;4.10;;
79526;SDS011;68974;47.754;-3.364;2023-05-15T03:10:37;5.20;;;4.18;;
79526;SDS011;68974;47.754;-3.364;2023-05-15T03:13:02;8.00;;;4.72;;
79526;SDS011;68974;47.754;-3.364;2023-05-15T03:15:27;7.28;;;4.97;;
79526;SDS011;68974;47.754;-3.364;2023-05-15T03:17:53;7.05;;;4.40;;
79526;SDS011;68974;47.754;-3.364;2023-05-15T03:20:18;6.50;;;4.53;;
79526;SDS011;68974;47.754;-3.364;2023-05-15T03:22:43;8.13;;;5.57;;
79526;SDS011;68974;47.754;-3.364;2023-05-15T03:25:09;7.53;;;4.10;;
79526;SDS011;68974;47.754;-3.364;2023-05-15T03:27:36;5.45;;;4.22;;
79526;SDS011;68974;47.754;-3.364;2023-05-15T03:30:02;7.50;;;4.18;;
79526;SDS011;68974;47.754;-3.364;2023-05-15T03:32:28;6.40;;;4.93;;
79526;SDS011;68974;47.754;-3.364;2023-05-15T03:34:53;7.53;;;4.25;;
79526;SDS011;68974;47.754;-3.364;2023-05-15T03:37:18;4.73;;;3.83;;
79526;SDS011;68974;47.754;-3.364;2023-05-15T03:39:44;4.13;;;3.65;;
79526;SDS011;68974;47.754;-3.364;2023-05-15T03:42:10;7.05;;;4.00;;
79526;SDS011;68974;47.754;-3.364;2023-05-15T03:44:35;5.85;;;3.60;;
79526;SDS011;68974;47.754;-3.364;2023-05-15T03:47:00;6.15;;;3.75;;
79526;SDS011;68974;47.754;-3.364;2023-05-15T03:49:26;5.57;;;3.83;;
79526;SDS011;68974;47.754;-3.364;2023-05-15T03:51:51;7.30;;;3.25;;
79526;SDS011;68974;47.754;-3.364;2023-05-15T03:54:17;6.03;;;4.60;;
79526;SDS011;68974;47.754;-3.364;2023-05-15T03:56:42;17.50;;;4.93;;
79526;SDS011;68974;47.754;-3.364;2023-05-15T03:59:08;4.22;;;2.70;;
79526;SDS011;68974;47.754;-3.364;2023-05-15T04:01:33;4.32;;;2.85;;
79526;SDS011;68974;47.754;-3.364;2023-05-15T04:03:59;6.72;;;4.25;;
79526;SDS011;68974;47.754;-3.364;2023-05-15T04:06:24;4.37;;;3.50;;
79526;SDS011;68974;47.754;-3.364;2023-05-15T04:08:50;6.10;;;3.20;;
79526;SDS011;68974;47.754;-3.364;2023-05-15T04:11:15;4.00;;;3.60;;
79526;SDS011;68974;47.754;-3.364;2023-05-15T04:13:40;8.10;;;4.15;;
79526;SDS011;68974;47.754;-3.364;2023-05-15T04:16:06;7.25;;;5.07;;
79526;SDS011;68974;47.754;-3.364;2023-05-15T04:18:32;6.28;;;3.40;;
79526;SDS011;68974;47.754;-3.364;2023-05-15T04:20:58;6.22;;;4.68;;
79526;SDS011;68974;47.754;-3.364;2023-05-15T04:23:23;3.08;;;2.40;;
79526;SDS011;68974;47.754;-3.364;2023-05-15T04:25:49;4.95;;;3.00;;
79526;SDS011;68974;47.754;-3.364;2023-05-15T04:28:17;4.57;;;2.22;;
79526;SDS011;68974;47.754;-3.364;2023-05-15T04:30:45;3.15;;;2.80;;
79526;SDS011;68974;47.754;-3.364;2023-05-15T04:33:10;2.92;;;2.22;;
79526;SDS011;68974;47.754;-3.364;2023-05-15T04:35:36;2.70;;;2.42;;
79526;SDS011;68974;47.754;-3.364;2023-05-15T04:38:01;3.45;;;2.17;;
79526;SDS011;68974;47.754;-3.364;2023-05-15T04:40:27;3.65;;;2.33;;
79526;SDS011;68974;47.754;-3.364;2023-05-15T04:42:52;4.53;;;2.67;;
79526;SDS011;68974;47.754;-3.364;2023-05-15T04:45:18;2.78;;;2.10;;
79526;SDS011;68974;47.754;-3.364;2023-05-15T04:47:43;4.43;;;3.00;;
79526;SDS011;68974;47.754;-3.364;2023-05-15T04:50:09;2.60;;;2.40;;
79526;SDS011;68974;47.754;-3.364;2023-05-15T04:52:35;2.53;;;1.70;;
79526;SDS011;68974;47.754;-3.364;2023-05-15T04:55:00;3.15;;;2.22;;
79526;SDS011;68974;47.754;-3.364;2023-05-15T04:57:26;3.03;;;2.30;;
79526;SDS011;68974;47.754;-3.364;2023-05-15T04:59:52;3.55;;;2.00;;
79526;SDS011;68974;47.754;-3.364;2023-05-15T05:02:21;3.88;;;2.30;;
79526;SDS011;68974;47.754;-3.364;2023-05-15T05:04:47;2.95;;;1.58;;
79526;SDS011;68974;47.754;-3.364;2023-05-15T05:07:12;1.80;;;1.65;;
79526;SDS011;68974;47.754;-3.364;2023-05-15T05:09:38;2.97;;;1.60;;
79526;SDS011;68974;47.754;-3.364;2023-05-15T05:12:04;2.00;;;1.50;;
79526;SDS011;68974;47.754;-3.364;2023-05-15T05:14:31;2.35;;;1.45;;
79526;SDS011;68974;47.754;-3.364;2023-05-15T05:16:56;2.58;;;1.48;;
79526;SDS011;68974;47.754;-3.364;2023-05-15T05:19:22;3.20;;;1.85;;
79526;SDS011;68974;47.754;-3.364;2023-05-15T05:21:47;3.45;;;1.30;;
79526;SDS011;68974;47.754;-3.364;2023-05-15T05:24:12;3.72;;;1.33;;
79526;SDS011;68974;47.754;-3.364;2023-05-15T05:26:38;2.55;;;1.40;;
79526;SDS011;68974;47.754;-3.364;2023-05-15T05:29:03;2.55;;;1.42;;
79526;SDS011;68974;47.754;-3.364;2023-05-15T05:31:28;1.70;;;1.23;;
79526;SDS011;68974;47.754;-3.364;2023-05-15T05:33:54;2.47;;;1.60;;
79526;SDS011;68974;47.754;-3.364;2023-05-15T05:36:19;2.35;;;1.63;;
79526;SDS011;68974;47.754;-3.364;2023-05-15T05:38:45;3.70;;;1.30;;
79526;SDS011;68974;47.754;-3.364;2023-05-15T05:41:10;3.65;;;1.67;;
79526;SDS011;68974;47.754;-3.364;2023-05-15T05:43:36;3.15;;;1.63;;
79526;SDS011;68974;47.754;-3.364;2023-05-15T05:46:01;5.95;;;1.52;;
79526;SDS011;68974;47.754;-3.364;2023-05-15T05:48:27;3.95;;;1.50;;
79526;SDS011;68974;47.754;-3.364;2023-05-15T05:50:52;5.35;;;3.50;;
79526;SDS011;68974;47.754;-3.364;2023-05-15T05:53:17;2.90;;;1.95;;
79526;SDS011;68974;47.754;-3.364;2023-05-15T05:55:43;4.28;;;1.70;;
79526;SDS011;68974;47.754;-3.364;2023-05-15T05:58:08;5.88;;;2.67;;
79526;SDS011;68974;47.754;-3.364;2023-05-15T06:00:34;6.60;;;2.55;;
79526;SDS011;68974;47.754;-3.364;2023-05-15T06:03:00;4.88;;;1.83;;
79526;SDS011;68974;47.754;-3.364;2023-05-15T06:05:25;7.60;;;2.47;;
79526;SDS011;68974;47.754;-3.364;2023-05-15T06:07:51;5.03;;;2.75;;
79526;SDS011;68974;47.754;-3.364;2023-05-15T06:10:18;3.10;;;2.45;;
79526;SDS011;68974;47.754;-3.364;2023-05-15T06:12:43;4.20;;;1.90;;
79526;SDS011;68974;47.754;-3.364;2023-05-15T06:15:09;4.18;;;2.28;;
79526;SDS011;68974;47.754;-3.364;2023-05-15T06:17:35;5.70;;;2.20;;
79526;SDS011;68974;47.754;-3.364;2023-05-15T06:20:01;6.90;;;2.13;;
79526;SDS011;68974;47.754;-3.364;2023-05-15T06:22:29;2.85;;;1.92;;
79526;SDS011;68974;47.754;-3.364;2023-05-15T06:24:56;4.22;;;1.90;;
79526;SDS011;68974;47.754;-3.364;2023-05-15T06:27:23;4.35;;;2.47;;
79526;SDS011;68974;47.754;-3.364;2023-05-15T06:29:49;8.27;;;2.58;;
79526;SDS011;68974;47.754;-3.364;2023-05-15T06:32:14;8.45;;;2.83;;
79526;SDS011;68974;47.754;-3.364;2023-05-15T06:34:41;4.05;;;2.00;;
79526;SDS011;68974;47.754;-3.364;2023-05-15T06:37:06;6.80;;;2.10;;
79526;SDS011;68974;47.754;-3.364;2023-05-15T06:39:31;14.02;;;2.60;;
79526;SDS011;68974;47.754;-3.364;2023-05-15T06:41:57;4.47;;;2.20;;
79526;SDS011;68974;47.754;-3.364;2023-05-15T06:44:25;7.93;;;2.38;;
79526;SDS011;68974;47.754;-3.364;2023-05-15T06:46:51;8.55;;;3.03;;
79526;SDS011;68974;47.754;-3.364;2023-05-15T06:49:17;7.10;;;4.40;;
79526;SDS011;68974;47.754;-3.364;2023-05-15T06:51:42;9.00;;;3.28;;
79526;SDS011;68974;47.754;-3.364;2023-05-15T06:54:07;7.22;;;2.45;;
79526;SDS011;68974;47.754;-3.364;2023-05-15T06:56:33;7.20;;;2.28;;
79526;SDS011;68974;47.754;-3.364;2023-05-15T06:58:58;5.43;;;2.05;;
79526;SDS011;68974;47.754;-3.364;2023-05-15T07:01:23;7.65;;;2.58;;
79526;SDS011;68974;47.754;-3.364;2023-05-15T07:03:49;7.97;;;2.97;;
79526;SDS011;68974;47.754;-3.364;2023-05-15T07:06:14;3.83;;;1.20;;
79526;SDS011;68974;47.754;-3.364;2023-05-15T07:08:40;3.80;;;1.40;;
79526;SDS011;68974;47.754;-3.364;2023-05-15T07:11:05;8.02;;;1.70;;
79526;SDS011;68974;47.754;-3.364;2023-05-15T07:13:31;3.08;;;1.48;;
79526;SDS011;68974;47.754;-3.364;2023-05-15T07:15:56;5.10;;;1.38;;
79526;SDS011;68974;47.754;-3.364;2023-05-15T07:18:22;2.90;;;1.30;;
79526;SDS011;68974;47.754;-3.364;2023-05-15T07:20:47;5.57;;;1.30;;
79526;SDS011;68974;47.754;-3.364;2023-05-15T07:23:12;3.85;;;1.10;;
79526;SDS011;68974;47.754;-3.364;2023-05-15T07:25:38;3.03;;;1.25;;
79526;SDS011;68974;47.754;-3.364;2023-05-15T07:28:03;2.45;;;0.90;;
79526;SDS011;68974;47.754;-3.364;2023-05-15T07:30:29;1.95;;;0.98;;
79526;SDS011;68974;47.754;-3.364;2023-05-15T07:32:54;2.50;;;1.02;;
79526;SDS011;68974;47.754;-3.364;2023-05-15T07:35:20;1.55;;;1.33;;
79526;SDS011;68974;47.754;-3.364;2023-05-15T07:37:45;3.47;;;1.17;;
79526;SDS011;68974;47.754;-3.364;2023-05-15T07:40:10;2.92;;;1.10;;
79526;SDS011;68974;47.754;-3.364;2023-05-15T07:42:36;2.40;;;1.25;;
79526;SDS011;68974;47.754;-3.364;2023-05-15T07:45:04;1.67;;;1.00;;
79526;SDS011;68974;47.754;-3.364;2023-05-15T07:47:30;1.75;;;0.98;;
79526;SDS011;68974;47.754;-3.364;2023-05-15T07:49:55;3.65;;;1.10;;
79526;SDS011;68974;47.754;-3.364;2023-05-15T07:52:21;3.38;;;1.00;;
79526;SDS011;68974;47.754;-3.364;2023-05-15T07:54:46;3.60;;;1.10;;
79526;SDS011;68974;47.754;-3.364;2023-05-15T07:57:11;2.60;;;2.08;;
79526;SDS011;68974;47.754;-3.364;2023-05-15T07:59:38;2.50;;;1.40;;
79526;SDS011;68974;47.754;-3.364;2023-05-15T08:02:03;1.58;;;1.17;;
79526;SDS011;68974;47.754;-3.364;2023-05-15T08:04:29;2.30;;;1.20;;
79526;SDS011;68974;47.754;-3.364;2023-05-15T08:06:54;3.28;;;1.80;;
79526;SDS011;68974;47.754;-3.364;2023-05-15T08:09:20;4.63;;;1.45;;
79526;SDS011;68974;47.754;-3.364;2023-05-15T08:11:45;2.75;;;0.95;;
79526;SDS011;68974;47.754;-3.364;2023-05-15T08:14:10;5.63;;;1.83;;
79526;SDS011;68974;47.754;-3.364;2023-05-15T08:16:36;3.03;;;1.17;;
79526;SDS011;68974;47.754;-3.364;2023-05-15T08:19:01;2.63;;;1.38;;
79526;SDS011;68974;47.754;-3.364;2023-05-15T08:23:55;3.65;;;1.40;;
79526;SDS011;68974;47.754;-3.364;2023-05-15T08:26:21;2.08;;;1.10;;
79526;SDS011;68974;47.754;-3.364;2023-05-15T08:28:46;1.35;;;0.95;;
79526;SDS011;68974;47.754;-3.364;2023-05-15T08:31:11;2.72;;;1.42;;
79526;SDS011;68974;47.754;-3.364;2023-05-15T08:33:37;2.80;;;1.13;;
79526;SDS011;68974;47.754;-3.364;2023-05-15T08:36:02;3.80;;;1.33;;
79526;SDS011;68974;47.754;-3.364;2023-05-15T08:38:28;4.53;;;1.40;;
79526;SDS011;68974;47.754;-3.364;2023-05-15T08:40:53;3.63;;;1.25;;
79526;SDS011;68974;47.754;-3.364;2023-05-15T08:43:22;5.55;;;1.63;;
79526;SDS011;68974;47.754;-3.364;2023-05-15T08:45:51;2.08;;;1.10;;
79526;SDS011;68974;47.754;-3.364;2023-05-15T08:48:18;1.50;;;0.90;;
79526;SDS011;68974;47.754;-3.364;2023-05-15T08:50:45;2.25;;;1.13;;
79526;SDS011;68974;47.754;-3.364;2023-05-15T08:53:11;3.35;;;0.90;;
79526;SDS011;68974;47.754;-3.364;2023-05-15T08:55:37;3.55;;;1.25;;
79526;SDS011;68974;47.754;-3.364;2023-05-15T08:58:02;3.85;;;1.13;;
79526;SDS011;68974;47.754;-3.364;2023-05-15T09:00:28;1.73;;;1.00;;
79526;SDS011;68974;47.754;-3.364;2023-05-15T09:02:54;4.03;;;1.00;;
79526;SDS011;68974;47.754;-3.364;2023-05-15T09:05:19;1.35;;;0.93;;
79526;SDS011;68974;47.754;-3.364;2023-05-15T09:07:45;2.83;;;2.50;;
79526;SDS011;68974;47.754;-3.364;2023-05-15T09:10:12;4.70;;;1.40;;
79526;SDS011;68974;47.754;-3.364;2023-05-15T09:12:40;3.15;;;0.77;;
79526;SDS011;68974;47.754;-3.364;2023-05-15T09:15:08;1.60;;;1.00;;
79526;SDS011;68974;47.754;-3.364;2023-05-15T09:17:35;2.42;;;1.20;;
79526;SDS011;68974;47.754;-3.364;2023-05-15T09:20:02;1.42;;;0.80;;
79526;SDS011;68974;47.754;-3.364;2023-05-15T09:22:30;1.65;;;1.10;;
79526;SDS011;68974;47.754;-3.364;2023-05-15T09:25:01;1.50;;;0.70;;
79526;SDS011;68974;47.754;-3.364;2023-05-15T09:27:28;1.08;;;0.68;;
79526;SDS011;68974;47.754;-3.364;2023-05-15T09:29:53;1.13;;;0.73;;
79526;SDS011;68974;47.754;-3.364;2023-05-15T09:32:21;0.80;;;0.80;;
79526;SDS011;68974;47.754;-3.364;2023-05-15T09:34:51;0.75;;;0.50;;
79526;SDS011;68974;47.754;-3.364;2023-05-15T09:37:32;1.30;;;0.70;;
79526;SDS011;68974;47.754;-3.364;2023-05-15T09:40:08;1.42;;;0.70;;
79526;SDS011;68974;47.754;-3.364;2023-05-15T09:42:35;1.30;;;0.68;;
79526;SDS011;68974;47.754;-3.364;2023-05-15T09:45:01;1.00;;;0.70;;
79526;SDS011;68974;47.754;-3.364;2023-05-15T09:47:26;1.13;;;0.75;;
79526;SDS011;68974;47.754;-3.364;2023-05-15T09:49:52;0.90;;;0.60;;
79526;SDS011;68974;47.754;-3.364;2023-05-15T09:52:17;0.75;;;0.55;;
79526;SDS011;68974;47.754;-3.364;2023-05-15T09:54:44;1.73;;;0.70;;
79526;SDS011;68974;47.754;-3.364;2023-05-15T09:57:11;3.45;;;0.90;;
79526;SDS011;68974;47.754;-3.364;2023-05-15T09:59:44;3.30;;;1.10;;
79526;SDS011;68974;47.754;-3.364;2023-05-15T10:02:24;1.60;;;1.10;;
79526;SDS011;68974;47.754;-3.364;2023-05-15T10:04:59;3.13;;;1.10;;
79526;SDS011;68974;47.754;-3.364;2023-05-15T10:07:32;4.88;;;1.30;;
79526;SDS011;68974;47.754;-3.364;2023-05-15T10:09:59;4.97;;;1.35;;
79526;SDS011;68974;47.754;-3.364;2023-05-15T10:12:26;3.72;;;1.30;;
79526;SDS011;68974;47.754;-3.364;2023-05-15T10:14:52;3.20;;;0.88;;
79526;SDS011;68974;47.754;-3.364;2023-05-15T10:17:22;2.85;;;1.15;;
79526;SDS011;68974;47.754;-3.364;2023-05-15T10:19:51;3.65;;;1.50;;
79526;SDS011;68974;47.754;-3.364;2023-05-15T10:22:18;3.78;;;1.02;;
79526;SDS011;68974;47.754;-3.364;2023-05-15T10:24:55;3.70;;;1.00;;
79526;SDS011;68974;47.754;-3.364;2023-05-15T10:27:32;3.50;;;1.38;;
79526;SDS011;68974;47.754;-3.364;2023-05-15T10:30:00;3.20;;;1.15;;
79526;SDS011;68974;47.754;-3.364;2023-05-15T10:32:28;1.73;;;1.25;;
79526;SDS011;68974;47.754;-3.364;2023-05-15T10:34:54;3.38;;;1.55;;
79526;SDS011;68974;47.754;-3.364;2023-05-15T10:37:21;4.45;;;1.27;;
79526;SDS011;68974;47.754;-3.364;2023-05-15T10:39:48;2.72;;;1.50;;
79526;SDS011;68974;47.754;-3.364;2023-05-15T10:42:14;10.27;;;1.80;;
79526;SDS011;68974;47.754;-3.364;2023-05-15T10:44:40;2.75;;;1.30;;
79526;SDS011;68974;47.754;-3.364;2023-05-15T10:47:06;7.40;;;2.00;;
79526;SDS011;68974;47.754;-3.364;2023-05-15T10:49:32;4.47;;;1.45;;
79526;SDS011;68974;47.754;-3.364;2023-05-15T10:52:01;6.20;;;1.63;;
79526;SDS011;68974;47.754;-3.364;2023-05-15T10:54:27;5.22;;;1.50;;
79526;SDS011;68974;47.754;-3.364;2023-05-15T10:59:20;3.92;;;1.55;;
79526;SDS011;68974;47.754;-3.364;2023-05-15T11:01:45;4.82;;;1.50;;
79526;SDS011;68974;47.754;-3.364;2023-05-15T11:06:45;6.80;;;1.77;;
79526;SDS011;68974;47.754;-3.364;2023-05-15T11:12:02;4.50;;;1.60;;
79526;SDS011;68974;47.754;-3.364;2023-05-15T11:14:31;2.65;;;1.85;;
79526;SDS011;68974;47.754;-3.364;2023-05-15T11:17:16;6.75;;;2.03;;
79526;SDS011;68974;47.754;-3.364;2023-05-15T11:27:23;4.57;;;2.10;;
79526;SDS011;68974;47.754;-3.364;2023-05-15T11:32:44;5.70;;;1.52;;
79526;SDS011;68974;47.754;-3.364;2023-05-15T11:35:28;5.15;;;1.67;;
79526;SDS011;68974;47.754;-3.364;2023-05-15T11:38:02;4.25;;;1.80;;
79526;SDS011;68974;47.754;-3.364;2023-05-15T11:43:07;5.88;;;1.40;;
79526;SDS011;68974;47.754;-3.364;2023-05-15T11:45:40;4.53;;;1.55;;
79526;SDS011;68974;47.754;-3.364;2023-05-15T11:48:09;3.97;;;1.42;;
79526;SDS011;68974;47.754;-3.364;2023-05-15T11:50:37;5.75;;;1.70;;
79526;SDS011;68974;47.754;-3.364;2023-05-15T11:53:04;3.97;;;1.70;;
79526;SDS011;68974;47.754;-3.364;2023-05-15T11:55:32;6.00;;;1.67;;
79526;SDS011;68974;47.754;-3.364;2023-05-15T11:57:59;4.20;;;1.98;;
79526;SDS011;68974;47.754;-3.364;2023-05-15T12:00:24;5.85;;;2.00;;
79526;SDS011;68974;47.754;-3.364;2023-05-15T12:02:50;5.03;;;1.50;;
79526;SDS011;68974;47.754;-3.364;2023-05-15T12:05:15;6.35;;;1.33;;
79526;SDS011;68974;47.754;-3.364;2023-05-15T12:07:41;5.25;;;1.35;;
79526;SDS011;68974;47.754;-3.364;2023-05-15T12:10:11;3.65;;;1.48;;
79526;SDS011;68974;47.754;-3.364;2023-05-15T12:12:38;5.43;;;1.40;;
79526;SDS011;68974;47.754;-3.364;2023-05-15T12:15:05;4.57;;;1.70;;
79526;SDS011;68974;47.754;-3.364;2023-05-15T12:17:33;4.07;;;1.80;;
79526;SDS011;68974;47.754;-3.364;2023-05-15T12:20:01;5.93;;;1.95;;
79526;SDS011;68974;47.754;-3.364;2023-05-15T12:22:34;4.63;;;1.70;;
79526;SDS011;68974;47.754;-3.364;2023-05-15T12:25:00;6.65;;;1.77;;
79526;SDS011;68974;47.754;-3.364;2023-05-15T12:27:26;3.72;;;1.30;;
79526;SDS011;68974;47.754;-3.364;2023-05-15T12:29:51;5.03;;;1.90;;
79526;SDS011;68974;47.754;-3.364;2023-05-15T12:32:18;4.97;;;1.58;;
79526;SDS011;68974;47.754;-3.364;2023-05-15T12:34:44;5.85;;;1.58;;
79526;SDS011;68974;47.754;-3.364;2023-05-15T12:37:11;3.83;;;1.63;;
79526;SDS011;68974;47.754;-3.364;2023-05-15T12:39:48;2.88;;;1.38;;
79526;SDS011;68974;47.754;-3.364;2023-05-15T12:42:14;3.92;;;1.60;;
79526;SDS011;68974;47.754;-3.364;2023-05-15T12:44:40;6.22;;;1.50;;
79526;SDS011;68974;47.754;-3.364;2023-05-15T12:47:08;3.83;;;1.73;;
79526;SDS011;68974;47.754;-3.364;2023-05-15T12:49:36;5.15;;;1.70;;
79526;SDS011;68974;47.754;-3.364;2023-05-15T12:52:08;4.90;;;1.92;;
79526;SDS011;68974;47.754;-3.364;2023-05-15T12:54:38;4.82;;;1.48;;
79526;SDS011;68974;47.754;-3.364;2023-05-15T12:57:05;6.95;;;1.67;;
79526;SDS011;68974;47.754;-3.364;2023-05-15T12:59:32;3.63;;;1.70;;
79526;SDS011;68974;47.754;-3.364;2023-05-15T13:01:58;6.65;;;1.60;;
79526;SDS011;68974;47.754;-3.364;2023-05-15T13:04:23;3.97;;;1.63;;
79526;SDS011;68974;47.754;-3.364;2023-05-15T13:06:49;6.68;;;1.90;;
79526;SDS011;68974;47.754;-3.364;2023-05-15T13:09:20;3.20;;;1.33;;
79526;SDS011;68974;47.754;-3.364;2023-05-15T13:11:46;2.67;;;1.38;;
79526;SDS011;68974;47.754;-3.364;2023-05-15T13:14:12;3.88;;;1.48;;
79526;SDS011;68974;47.754;-3.364;2023-05-15T13:16:41;4.07;;;1.58;;
79526;SDS011;68974;47.754;-3.364;2023-05-15T13:19:08;4.57;;;1.98;;
79526;SDS011;68974;47.754;-3.364;2023-05-15T13:21:34;5.25;;;1.60;;
79526;SDS011;68974;47.754;-3.364;2023-05-15T13:24:00;5.07;;;1.48;;
79526;SDS011;68974;47.754;-3.364;2023-05-15T13:26:25;7.40;;;1.60;;
79526;SDS011;68974;47.754;-3.364;2023-05-15T13:28:51;4.72;;;1.45;;
79526;SDS011;68974;47.754;-3.364;2023-05-15T13:31:16;2.78;;;1.40;;
79526;SDS011;68974;47.754;-3.364;2023-05-15T13:33:42;4.03;;;1.50;;
79526;SDS011;68974;47.754;-3.364;2023-05-15T13:36:07;3.72;;;1.30;;
79526;SDS011;68974;47.754;-3.364;2023-05-15T13:38:33;3.88;;;1.10;;
79526;SDS011;68974;47.754;-3.364;2023-05-15T13:40:58;5.15;;;1.20;;
79526;SDS011;68974;47.754;-3.364;2023-05-15T13:43:24;9.00;;;2.38;;
79526;SDS011;68974;47.754;-3.364;2023-05-15T13:45:49;6.35;;;1.00;;
79526;SDS011;68974;47.754;-3.364;2023-05-15T13:48:15;3.58;;;1.50;;
79526;SDS011;68974;47.754;-3.364;2023-05-15T13:50:40;4.93;;;1.38;;
79526;SDS011;68974;47.754;-3.364;2023-05-15T13:53:07;3.55;;;0.90;;
79526;SDS011;68974;47.754;-3.364;2023-05-15T13:55:33;5.32;;;1.42;;
79526;SDS011;68974;47.754;-3.364;2023-05-15T13:57:58;3.53;;;1.27;;
79526;SDS011;68974;47.754;-3.364;2023-05-15T14:00:25;4.35;;;1.00;;
79526;SDS011;68974;47.754;-3.364;2023-05-15T14:02:50;4.55;;;1.70;;
79526;SDS011;68974;47.754;-3.364;2023-05-15T14:05:16;2.75;;;1.13;;
79526;SDS011;68974;47.754;-3.364;2023-05-15T14:07:42;5.25;;;1.38;;
79526;SDS011;68974;47.754;-3.364;2023-05-15T14:10:08;6.35;;;0.90;;
79526;SDS011;68974;47.754;-3.364;2023-05-15T14:12:34;4.38;;;1.10;;
79526;SDS011;68974;47.754;-3.364;2023-05-15T14:15:01;2.25;;;1.13;;
79526;SDS011;68974;47.754;-3.364;2023-05-15T14:17:26;6.32;;;1.25;;
79526;SDS011;68974;47.754;-3.364;2023-05-15T14:19:52;2.50;;;0.98;;
79526;SDS011;68974;47.754;-3.364;2023-05-15T14:22:18;3.05;;;1.33;;
79526;SDS011;68974;47.754;-3.364;2023-05-15T14:24:43;2.90;;;1.00;;
79526;SDS011;68974;47.754;-3.364;2023-05-15T14:27:09;4.30;;;1.20;;
79526;SDS011;68974;47.754;-3.364;2023-05-15T14:29:34;3.58;;;1.00;;
79526;SDS011;68974;47.754;-3.364;2023-05-15T14:32:00;3.45;;;1.00;;
79526;SDS011;68974;47.754;-3.364;2023-05-15T14:34:25;6.15;;;1.20;;
79526;SDS011;68974;47.754;-3.364;2023-05-15T14:36:51;4.10;;;1.20;;
79526;SDS011;68974;47.754;-3.364;2023-05-15T14:39:16;4.78;;;1.15;;
79526;SDS011;68974;47.754;-3.364;2023-05-15T14:41:42;3.72;;;1.17;;
79526;SDS011;68974;47.754;-3.364;2023-05-15T14:44:08;2.40;;;1.02;;
79526;SDS011;68974;47.754;-3.364;2023-05-15T14:46:34;4.63;;;1.30;;
79526;SDS011;68974;47.754;-3.364;2023-05-15T14:49:03;3.88;;;1.08;;
79526;SDS011;68974;47.754;-3.364;2023-05-15T14:51:29;2.97;;;1.20;;
79526;SDS011;68974;47.754;-3.364;2023-05-15T14:53:55;4.53;;;1.30;;
79526;SDS011;68974;47.754;-3.364;2023-05-15T14:56:20;3.13;;;0.93;;
79526;SDS011;68974;47.754;-3.364;2023-05-15T14:58:46;4.80;;;1.10;;
79526;SDS011;68974;47.754;-3.364;2023-05-15T15:01:12;4.80;;;1.52;;
79526;SDS011;68974;47.754;-3.364;2023-05-15T15:03:38;2.65;;;0.80;;
79526;SDS011;68974;47.754;-3.364;2023-05-15T15:06:03;2.95;;;0.85;;
79526;SDS011;68974;47.754;-3.364;2023-05-15T15:08:29;5.65;;;1.00;;
79526;SDS011;68974;47.754;-3.364;2023-05-15T15:10:54;3.88;;;0.93;;
79526;SDS011;68974;47.754;-3.364;2023-05-15T15:13:20;1.55;;;0.90;;